Terminal Aerodrome Forecast
Issued by NWS

Home | Current Version | Previous Version | Text Only | Print | Product List | Glossary On
Versions: 1 2 3 4 5 6 7 8 9 10 11 12
000
FTPA31 PHFO 282330
TAFHJH
TAF
PHJH 282330Z 2900/2924 05016G24KT P6SM FEW025 SCT050
     FM290600 04010KT P6SM FEW025 SCT050
     FM292000 05016G24KT P6SM FEW025 SCT050=

USA.gov is the U.S. government's official web portal to all federal, state and local government web resources and services.